Time;durP1;ratioP1;P1;durP2;ratioP2;P2;SDS_P1;SDS_P2;PMS_P1;PMS_P2;Temp;Humidity;BMP_temperature;BMP_pressure;BME280_temperature;BME280_humidity;BME280_pressure;Samples;Min_cycle;Max_cycle;Signal;HPM_P1;HPM_P2
2022/01/06 00:02:08;;;;;;;3.90;2.55;;;22.60;38.60;;;;;;6161741;28;81053;-68
2022/01/06 00:05:09;;;;;;;4.95;2.92;;;22.60;38.40;;;;;;6179390;27;80533;-69
2022/01/06 00:08:09;;;;;;;5.30;2.97;;;22.60;38.60;;;;;;6180341;27;81354;-68
2022/01/06 00:11:11;;;;;;;5.40;2.92;;;22.60;38.40;;;;;;6162235;28;82445;-68
2022/01/06 00:23:55;;;;;;;6.38;2.80;;;22.60;38.50;;;;;;6161613;28;81362;-68
2022/01/06 00:26:56;;;;;;;4.97;2.70;;;22.50;38.80;;;;;;6166304;28;81381;-69
2022/01/06 00:29:57;;;;;;;5.82;3.03;;;22.50;38.60;;;;;;6179532;27;80566;-69
2022/01/06 00:32:57;;;;;;;6.28;3.10;;;22.50;38.70;;;;;;6172112;28;81578;-70
2022/01/06 00:35:58;;;;;;;6.70;2.78;;;22.50;38.60;;;;;;6209002;27;81869;-69
2022/01/06 00:38:58;;;;;;;4.72;2.58;;;22.50;38.50;;;;;;6168922;28;80641;-70
2022/01/06 00:42:00;;;;;;;4.30;2.65;;;22.50;38.50;;;;;;6168196;27;80879;-69
2022/01/06 00:45:01;;;;;;;5.00;2.95;;;22.50;38.70;;;;;;6158057;28;80484;-69
2022/01/06 00:48:01;;;;;;;4.60;2.50;;;22.50;38.70;;;;;;6172902;27;81463;-69
2022/01/06 00:51:02;;;;;;;4.78;2.83;;;22.50;38.80;;;;;;6165457;27;80850;-69
2022/01/06 00:54:02;;;;;;;3.95;2.40;;;22.50;38.80;;;;;;6169072;28;80118;-69
2022/01/06 00:57:04;;;;;;;4.72;3.17;;;22.50;38.80;;;;;;6174132;27;80367;-69
2022/01/06 01:00:04;;;;;;;4.90;2.60;;;22.50;38.60;;;;;;6169902;28;81752;-69
2022/01/06 01:03:05;;;;;;;5.40;2.75;;;22.50;38.60;;;;;;6169757;28;80173;-69
2022/01/06 01:06:05;;;;;;;4.95;2.47;;;22.50;38.90;;;;;;6169188;28;81825;-69
2022/01/06 01:09:06;;;;;;;5.18;2.78;;;22.50;38.60;;;;;;6174602;28;80419;-69
2022/01/06 01:12:06;;;;;;;4.18;2.50;;;22.50;38.80;;;;;;6168772;28;80606;-69
2022/01/06 01:15:09;;;;;;;5.30;2.78;;;22.50;38.60;;;;;;6167376;28;82363;-69
2022/01/06 01:18:10;;;;;;;5.07;3.03;;;22.50;38.60;;;;;;6165095;28;81130;-69
2022/01/06 01:21:11;;;;;;;4.25;2.58;;;22.50;38.40;;;;;;6162822;28;81307;-70
2022/01/06 01:24:11;;;;;;;4.13;2.60;;;22.50;38.60;;;;;;6161077;28;80396;-69
2022/01/06 01:27:13;;;;;;;4.10;2.53;;;22.50;38.90;;;;;;6161584;28;80436;-69
2022/01/06 01:30:14;;;;;;;5.47;2.85;;;22.50;38.60;;;;;;6159617;28;81022;-69
2022/01/06 01:33:17;;;;;;;5.40;2.58;;;22.50;38.70;;;;;;6161674;28;80876;-70
2022/01/06 01:36:17;;;;;;;3.55;2.25;;;22.50;38.80;;;;;;6165599;28;80807;-70
2022/01/06 01:39:18;;;;;;;5.63;3.00;;;22.50;38.80;;;;;;6169712;28;81120;-68
2022/01/06 01:42:18;;;;;;;4.55;2.40;;;22.50;38.70;;;;;;6178300;28;80650;-69
2022/01/06 01:45:19;;;;;;;4.95;2.42;;;22.40;38.60;;;;;;6178130;28;80282;-69
2022/01/06 01:48:25;;;;;;;4.82;2.20;;;22.40;38.50;;;;;;6173230;28;80498;-69
2022/01/06 01:51:26;;;;;;;5.90;2.75;;;22.40;38.60;;;;;;6167860;28;81735;-70
2022/01/06 01:54:26;;;;;;;4.55;2.70;;;22.40;38.50;;;;;;6161139;28;80817;-70
2022/01/06 01:57:27;;;;;;;4.63;2.38;;;22.40;38.70;;;;;;6194491;28;83557;-70
2022/01/06 02:00:27;;;;;;;3.58;2.13;;;22.40;38.50;;;;;;6172606;27;80517;-69
2022/01/06 02:03:28;;;;;;;4.78;2.63;;;22.40;38.50;;;;;;6167680;28;80821;-69
2022/01/06 02:06:28;;;;;;;5.22;2.65;;;22.40;38.60;;;;;;6160517;28;81807;-70
2022/01/06 02:09:29;;;;;;;3.55;2.20;;;22.40;38.40;;;;;;6170062;28;80730;-69
2022/01/06 02:12:32;;;;;;;3.05;2.10;;;22.40;38.80;;;;;;6161692;27;84153;-70
2022/01/06 02:15:33;;;;;;;3.50;2.03;;;22.40;38.70;;;;;;6163569;28;81457;-69
2022/01/06 02:18:33;;;;;;;4.25;2.17;;;22.40;38.40;;;;;;6172471;28;80411;-68
2022/01/06 02:21:34;;;;;;;3.90;2.00;;;22.40;38.60;;;;;;6163884;28;80697;-69
2022/01/06 02:24:34;;;;;;;3.70;2.10;;;22.40;38.60;;;;;;6174798;28;80837;-69
2022/01/06 02:27:35;;;;;;;3.47;2.10;;;22.40;38.60;;;;;;6206751;28;82381;-69
2022/01/06 02:30:36;;;;;;;4.40;2.83;;;22.40;38.60;;;;;;6160251;28;82378;-69
2022/01/06 02:33:37;;;;;;;4.28;2.20;;;22.40;38.60;;;;;;6162505;28;80711;-70
2022/01/06 02:36:37;;;;;;;5.13;2.30;;;22.40;38.70;;;;;;6167939;28;80636;-70
2022/01/06 02:39:38;;;;;;;3.72;2.20;;;22.30;38.60;;;;;;6159798;28;80873;-70
2022/01/06 02:42:38;;;;;;;5.40;2.28;;;22.40;38.60;;;;;;6162400;28;80279;-69
2022/01/06 02:45:39;;;;;;;5.78;2.47;;;22.40;38.60;;;;;;6160365;28;80518;-70
2022/01/06 02:48:39;;;;;;;3.15;1.80;;;22.40;38.60;;;;;;6166527;28;80267;-70
2022/01/06 02:51:40;;;;;;;4.57;2.42;;;22.40;38.60;;;;;;6167636;28;81621;-70
2022/01/06 02:54:40;;;;;;;3.45;2.20;;;22.40;38.70;;;;;;6177510;28;81201;-69
2022/01/06 02:57:41;;;;;;;2.53;1.90;;;22.40;38.70;;;;;;6165199;28;80513;-70
2022/01/06 03:00:41;;;;;;;3.25;1.98;;;22.40;38.60;;;;;;6176323;28;80256;-70
2022/01/06 03:03:42;;;;;;;4.03;2.35;;;22.40;38.70;;;;;;6162613;27;80883;-69
2022/01/06 03:06:42;;;;;;;4.07;2.28;;;22.40;38.60;;;;;;6190408;28;82397;-70
2022/01/06 03:09:44;;;;;;;3.35;1.98;;;22.40;38.50;;;;;;6161210;28;80391;-69
2022/01/06 03:12:44;;;;;;;2.47;1.70;;;22.40;38.30;;;;;;6158920;28;80122;-69
2022/01/06 03:15:45;;;;;;;3.75;1.85;;;22.40;38.30;;;;;;6176879;27;80864;-70
2022/01/06 03:18:45;;;;;;;2.92;1.83;;;22.40;37.90;;;;;;6163396;28;80822;-70
2022/01/06 03:21:46;;;;;;;2.92;1.80;;;22.40;37.40;;;;;;6158466;28;80643;-69
2022/01/06 03:24:46;;;;;;;4.90;2.20;;;22.50;37.20;;;;;;6176396;27;80528;-69
2022/01/06 03:27:47;;;;;;;3.55;1.85;;;22.50;37.10;;;;;;6174661;28;82863;-70
2022/01/06 03:30:47;;;;;;;3.47;1.80;;;22.50;37.00;;;;;;6175827;28;80071;-70
2022/01/06 03:33:48;;;;;;;5.28;1.73;;;22.60;37.10;;;;;;6161986;27;80400;-69
2022/01/06 03:36:48;;;;;;;2.50;1.65;;;22.60;36.90;;;;;;6166704;28;80359;-69
2022/01/06 03:39:49;;;;;;;2.60;1.50;;;22.60;36.90;;;;;;6156859;28;81695;-70
2022/01/06 03:42:49;;;;;;;4.13;1.75;;;22.60;36.80;;;;;;6175338;27;80616;-69
2022/01/06 03:45:50;;;;;;;5.25;1.75;;;22.70;36.90;;;;;;6158577;28;81303;-70
2022/01/06 03:48:50;;;;;;;2.97;1.77;;;22.70;36.90;;;;;;6173501;27;81363;-69
2022/01/06 03:51:51;;;;;;;3.40;1.80;;;22.70;36.80;;;;;;6170656;27;81871;-69
2022/01/06 03:54:51;;;;;;;3.50;1.63;;;22.70;36.90;;;;;;6166676;28;80262;-69
2022/01/06 03:57:52;;;;;;;2.38;1.65;;;22.70;36.80;;;;;;6175628;27;80574;-70
2022/01/06 04:00:52;;;;;;;3.15;1.75;;;22.80;36.80;;;;;;6159638;28;81410;-70
2022/01/06 04:03:53;;;;;;;3.38;1.75;;;22.80;36.70;;;;;;6174872;27;82564;-70
2022/01/06 04:06:53;;;;;;;2.65;1.50;;;22.80;36.60;;;;;;6172058;27;80379;-69
2022/01/06 04:09:54;;;;;;;3.00;1.77;;;22.80;36.60;;;;;;6164450;28;82947;-69
2022/01/06 04:12:54;;;;;;;2.63;1.70;;;22.80;36.50;;;;;;6154049;28;83001;-69
2022/01/06 04:15:55;;;;;;;3.75;1.75;;;22.80;36.40;;;;;;6165232;28;80775;-70
2022/01/06 04:18:55;;;;;;;4.88;1.80;;;22.80;36.40;;;;;;6165784;28;82090;-69
2022/01/06 04:21:56;;;;;;;2.50;1.60;;;22.80;36.20;;;;;;6176740;27;80252;-70
2022/01/06 04:24:56;;;;;;;2.45;1.65;;;22.80;36.30;;;;;;6165777;28;80641;-69
2022/01/06 04:27:57;;;;;;;2.45;1.67;;;22.90;36.40;;;;;;6169022;27;81376;-68
2022/01/06 04:30:57;;;;;;;2.58;1.60;;;22.90;36.30;;;;;;6168912;28;80427;-68
2022/01/06 04:33:58;;;;;;;2.78;1.60;;;22.90;36.30;;;;;;6177179;27;81829;-68
2022/01/06 04:36:59;;;;;;;3.35;1.80;;;22.90;36.30;;;;;;6166311;28;80613;-68
2022/01/06 04:40:00;;;;;;;1.92;1.30;;;23.00;36.30;;;;;;6175910;28;81639;-68
2022/01/06 04:43:00;;;;;;;1.40;1.20;;;23.00;36.20;;;;;;6173285;27;80498;-68
2022/01/06 04:46:01;;;;;;;3.90;1.70;;;23.00;36.20;;;;;;6168616;28;81190;-68
2022/01/06 04:49:01;;;;;;;1.92;1.33;;;23.00;36.10;;;;;;6172114;27;80857;-68
2022/01/06 04:52:02;;;;;;;2.92;1.58;;;23.00;36.20;;;;;;6166478;28;80749;-68
2022/01/06 04:55:02;;;;;;;3.88;1.80;;;23.00;36.20;;;;;;6168754;28;81958;-68
2022/01/06 04:58:03;;;;;;;2.35;1.60;;;23.00;36.10;;;;;;6178889;27;80319;-67
2022/01/06 05:01:03;;;;;;;3.63;1.80;;;23.00;36.00;;;;;;6172957;28;81510;-66
2022/01/06 05:04:04;;;;;;;3.50;1.67;;;23.10;36.00;;;;;;6174674;27;81687;-68
2022/01/06 05:07:04;;;;;;;1.88;1.40;;;23.10;36.00;;;;;;6166153;28;80331;-67
2022/01/06 05:10:05;;;;;;;4.30;1.67;;;23.10;36.20;;;;;;6165451;28;80134;-69
2022/01/06 05:13:05;;;;;;;2.20;1.50;;;23.10;36.10;;;;;;6175208;28;80427;-73
2022/01/06 05:16:06;;;;;;;2.35;1.48;;;23.10;36.10;;;;;;6154925;28;80545;-74
2022/01/06 05:19:06;;;;;;;4.07;1.45;;;23.10;35.90;;;;;;6154507;28;81084;-74
2022/01/06 05:22:07;;;;;;;3.88;1.60;;;23.10;35.80;;;;;;6159141;28;81706;-73
2022/01/06 05:25:07;;;;;;;2.00;1.40;;;23.10;35.70;;;;;;6161259;28;80655;-74
2022/01/06 05:28:08;;;;;;;2.65;1.40;;;23.10;35.80;;;;;;6160230;28;80465;-77
2022/01/06 05:31:08;;;;;;;2.35;1.52;;;23.10;35.90;;;;;;6160078;28;80492;-71
2022/01/06 05:34:09;;;;;;;2.95;1.30;;;23.10;36.00;;;;;;6160919;28;80236;-67
2022/01/06 05:37:09;;;;;;;1.85;1.30;;;23.10;35.90;;;;;;6160543;28;80843;-69
2022/01/06 05:40:10;;;;;;;3.58;1.50;;;23.10;35.90;;;;;;6161170;28;80421;-67
2022/01/06 05:43:10;;;;;;;2.47;1.67;;;23.20;36.10;;;;;;6160409;28;82924;-70
2022/01/06 05:46:11;;;;;;;3.33;1.75;;;23.20;36.30;;;;;;6155802;28;82019;-71
2022/01/06 05:49:11;;;;;;;2.42;1.52;;;23.20;36.30;;;;;;6160488;28;80259;-71
2022/01/06 05:52:12;;;;;;;2.63;1.65;;;23.20;36.20;;;;;;6160148;28;80490;-72
2022/01/06 05:55:12;;;;;;;3.13;1.77;;;23.20;36.10;;;;;;6160482;28;82712;-70
2022/01/06 05:58:13;;;;;;;6.22;2.03;;;23.20;36.50;;;;;;6157534;28;80288;-67
2022/01/06 06:01:13;;;;;;;2.95;2.00;;;23.20;37.00;;;;;;6159262;28;81191;-68
2022/01/06 06:04:14;;;;;;;6.22;1.70;;;23.20;37.10;;;;;;6152026;28;80604;-70
2022/01/06 06:07:14;;;;;;;10.45;2.10;;;23.30;37.90;;;;;;6157875;28;80502;-67
2022/01/06 06:10:15;;;;;;;4.03;2.05;;;23.30;38.20;;;;;;6160036;28;80874;-67
2022/01/06 06:13:15;;;;;;;6.53;2.30;;;23.30;38.40;;;;;;6160379;28;80442;-66
2022/01/06 06:16:16;;;;;;;4.20;1.83;;;23.30;38.30;;;;;;6172288;28;80807;-68
2022/01/06 06:19:17;;;;;;;2.97;1.60;;;23.30;38.20;;;;;;6159307;28;80746;-70
2022/01/06 06:22:17;;;;;;;3.47;1.75;;;23.30;38.50;;;;;;6156975;28;81682;-69
2022/01/06 06:25:18;;;;;;;3.33;1.85;;;23.30;38.50;;;;;;6159118;28;80591;-67
2022/01/06 06:28:18;;;;;;;3.45;1.65;;;23.20;38.30;;;;;;6155089;28;81847;-69
2022/01/06 06:31:19;;;;;;;3.33;1.80;;;23.30;38.90;;;;;;6158652;28;81257;-68
2022/01/06 06:34:19;;;;;;;4.03;1.90;;;23.30;39.20;;;;;;6157762;28;80923;-69
2022/01/06 06:37:19;;;;;;;3.75;1.50;;;23.30;39.40;;;;;;6158402;28;85167;-68
2022/01/06 06:40:22;;;;;;;3.28;1.98;;;23.30;40.80;;;;;;6158903;28;81565;-68
2022/01/06 06:43:22;;;;;;;4.63;1.80;;;23.30;40.50;;;;;;6157466;28;81484;-67
2022/01/06 06:46:23;;;;;;;12.13;2.53;;;23.30;40.40;;;;;;6148798;28;81861;-67
2022/01/06 06:49:24;;;;;;;4.95;2.33;;;23.20;41.50;;;;;;6152442;28;81150;-69
2022/01/06 06:52:24;;;;;;;3.65;2.20;;;23.20;40.80;;;;;;6156345;28;80763;-68
2022/01/06 06:55:24;;;;;;;8.88;2.58;;;23.30;41.20;;;;;;6158437;28;81560;-67
2022/01/06 06:58:25;;;;;;;4.88;2.78;;;23.20;42.10;;;;;;6158692;28;81869;-68
2022/01/06 07:01:25;;;;;;;5.65;2.58;;;23.30;41.80;;;;;;6160570;28;80788;-69
2022/01/06 07:04:26;;;;;;;5.55;2.92;;;23.30;41.60;;;;;;6157866;28;80383;-68
2022/01/06 07:07:26;;;;;;;35.28;3.60;;;23.20;41.50;;;;;;6158746;28;80975;-69
2022/01/06 07:10:27;;;;;;;6.78;2.53;;;23.20;41.80;;;;;;6158477;28;80764;-68
2022/01/06 07:13:27;;;;;;;6.43;2.40;;;23.20;41.60;;;;;;6158956;28;80915;-68
2022/01/06 07:16:28;;;;;;;8.98;4.53;;;23.20;41.50;;;;;;6158065;28;80623;-68
2022/01/06 07:19:28;;;;;;;9.05;3.20;;;23.20;41.70;;;;;;6159488;28;80699;-68
2022/01/06 07:22:29;;;;;;;4.88;2.60;;;23.30;41.50;;;;;;6158975;28;80709;-69
2022/01/06 07:25:29;;;;;;;6.35;3.10;;;23.20;41.40;;;;;;6157960;28;80208;-69
2022/01/06 07:28:30;;;;;;;9.40;3.45;;;23.30;41.60;;;;;;6147500;28;80396;-69
2022/01/06 07:31:30;;;;;;;5.70;2.88;;;23.30;41.60;;;;;;6158387;28;81299;-68
2022/01/06 07:34:31;;;;;;;6.07;2.65;;;23.30;41.40;;;;;;6158405;28;80528;-69
2022/01/06 07:37:31;;;;;;;3.22;2.65;;;23.30;41.50;;;;;;6156963;28;80531;-67
2022/01/06 07:40:32;;;;;;;5.82;3.05;;;23.30;41.50;;;;;;6157719;28;81823;-68
2022/01/06 07:43:32;;;;;;;6.53;3.13;;;23.30;41.50;;;;;;6156658;28;80365;-69
2022/01/06 07:46:33;;;;;;;7.55;3.17;;;23.30;42.10;;;;;;6158282;28;80647;-70
2022/01/06 07:49:33;;;;;;;4.00;2.78;;;23.30;42.30;;;;;;6160850;28;81251;-69
2022/01/06 07:52:34;;;;;;;7.55;2.85;;;23.30;42.60;;;;;;6162657;28;80851;-70
2022/01/06 07:55:34;;;;;;;12.85;3.20;;;23.20;42.30;;;;;;6163855;28;80759;-70
2022/01/06 07:58:35;;;;;;;11.20;3.20;;;23.20;41.70;;;;;;6163051;28;80270;-67
2022/01/06 08:01:37;;;;;;;5.43;2.90;;;23.20;42.00;;;;;;6162412;28;80946;-67
2022/01/06 08:04:37;;;;;;;6.00;2.58;;;23.10;41.60;;;;;;6162727;28;81060;-65
2022/01/06 08:07:38;;;;;;;6.28;2.95;;;23.10;41.50;;;;;;6163880;28;81312;-67
2022/01/06 08:10:38;;;;;;;6.07;2.33;;;23.10;41.10;;;;;;6158777;28;81058;-63
2022/01/06 08:13:39;;;;;;;3.67;2.20;;;23.10;40.60;;;;;;6162097;28;80155;-66
2022/01/06 08:16:39;;;;;;;14.73;2.97;;;23.00;40.50;;;;;;6163320;28;81583;-68
2022/01/06 08:19:41;;;;;;;6.25;2.60;;;23.00;40.60;;;;;;6161684;28;82824;-72
2022/01/06 08:22:41;;;;;;;5.13;2.63;;;23.00;41.00;;;;;;6148750;28;80532;-67
2022/01/06 08:25:41;;;;;;;7.43;2.60;;;23.00;41.00;;;;;;6160653;28;80430;-66
2022/01/06 08:28:42;;;;;;;5.18;2.60;;;23.00;40.60;;;;;;6155721;28;80862;-65
2022/01/06 08:31:43;;;;;;;4.38;2.42;;;23.00;40.90;;;;;;6150208;28;80701;-68
2022/01/06 08:34:43;;;;;;;5.85;2.60;;;22.90;41.10;;;;;;6162597;28;80977;-67
2022/01/06 08:37:43;;;;;;;6.05;2.03;;;23.00;41.30;;;;;;6155193;28;81713;-73
2022/01/06 08:40:44;;;;;;;5.82;2.45;;;22.90;41.00;;;;;;6154059;28;80429;-66
2022/01/06 08:43:45;;;;;;;98.90;48.03;;;22.90;40.90;;;;;;6159849;28;80613;-67
2022/01/06 08:46:45;;;;;;;222.75;104.35;;;23.00;40.90;;;;;;6156212;28;83231;-67
2022/01/06 08:49:46;;;;;;;158.65;77.57;;;23.00;41.00;;;;;;6153672;28;85561;-67
2022/01/06 08:52:46;;;;;;;146.52;65.45;;;23.00;41.00;;;;;;6156945;28;85279;-68
2022/01/06 08:55:47;;;;;;;171.38;83.63;;;23.00;41.10;;;;;;6157483;28;83810;-66
2022/01/06 08:58:48;;;;;;;272.25;124.05;;;23.00;41.10;;;;;;6155344;28;83124;-67
2022/01/06 09:01:48;;;;;;;327.15;156.68;;;23.00;41.30;;;;;;6149008;28;85644;-64
2022/01/06 09:04:49;;;;;;;268.33;125.35;;;23.00;41.00;;;;;;6152418;28;85533;-69
2022/01/06 09:07:49;;;;;;;227.27;107.53;;;23.00;41.20;;;;;;6152895;28;85683;-69
2022/01/06 09:10:50;;;;;;;217.98;97.57;;;23.00;41.00;;;;;;6153299;28;85833;-68
2022/01/06 09:13:50;;;;;;;174.43;83.47;;;23.00;41.00;;;;;;6157434;28;85965;-69
2022/01/06 09:16:52;;;;;;;142.52;65.53;;;23.00;40.90;;;;;;6159372;28;83062;-71
2022/01/06 09:19:52;;;;;;;112.60;53.42;;;22.90;40.30;;;;;;6153841;28;83709;-71
2022/01/06 09:22:53;;;;;;;97.40;45.78;;;22.80;39.80;;;;;;6158656;28;82824;-73
2022/01/06 09:25:53;;;;;;;80.95;37.33;;;22.80;39.40;;;;;;6156169;28;83589;-74
2022/01/06 09:28:54;;;;;;;67.30;30.63;;;22.70;38.80;;;;;;6158108;28;82948;-74
2022/01/06 09:31:54;;;;;;;55.47;24.15;;;22.60;38.10;;;;;;6158477;28;83083;-73
2022/01/06 09:34:55;;;;;;;44.50;20.35;;;22.50;37.80;;;;;;6155332;28;84483;-73
2022/01/06 09:37:55;;;;;;;32.63;15.77;;;22.50;37.40;;;;;;6154723;28;84150;-74
2022/01/06 09:40:56;;;;;;;28.17;12.65;;;22.40;37.00;;;;;;6155755;28;83096;-73
2022/01/06 09:43:56;;;;;;;20.98;9.95;;;22.40;37.30;;;;;;6156836;28;83206;-74
2022/01/06 09:46:57;;;;;;;22.42;9.63;;;22.30;36.80;;;;;;6160231;28;83489;-74
2022/01/06 09:49:57;;;;;;;22.33;8.63;;;22.30;36.70;;;;;;6160161;28;81900;-74
2022/01/06 09:52:58;;;;;;;12.63;6.90;;;22.30;36.70;;;;;;6160378;28;80273;-73
2022/01/06 09:55:58;;;;;;;13.40;6.65;;;22.20;36.30;;;;;;6160747;28;80772;-73
2022/01/06 09:58:59;;;;;;;10.05;5.50;;;22.20;36.20;;;;;;6159385;28;80920;-74
2022/01/06 10:01:59;;;;;;;12.75;5.05;;;22.20;36.60;;;;;;6159848;28;80921;-73
2022/01/06 10:05:00;;;;;;;13.95;5.03;;;22.20;36.50;;;;;;6160357;28;80342;-73
2022/01/06 10:08:00;;;;;;;10.30;4.80;;;22.20;35.90;;;;;;6157722;28;80461;-76
2022/01/06 10:11:00;;;;;;;8.45;4.72;;;22.20;35.80;;;;;;6157364;28;81751;-77
2022/01/06 10:14:04;;;;;;;9.98;5.05;;;22.30;35.70;;;;;;6160201;28;80527;-73
2022/01/06 10:17:04;;;;;;;9.63;5.05;;;22.20;35.20;;;;;;6160626;28;80245;-75
2022/01/06 10:20:05;;;;;;;8.68;4.75;;;22.30;35.30;;;;;;6159499;28;81120;-74
2022/01/06 10:23:05;;;;;;;10.35;4.47;;;22.30;35.60;;;;;;6160837;28;80767;-74
2022/01/06 10:26:06;;;;;;;7.82;3.97;;;22.30;35.10;;;;;;6160626;28;80184;-73
2022/01/06 10:29:06;;;;;;;9.77;3.78;;;22.20;34.90;;;;;;6159418;28;80325;-73
2022/01/06 10:32:07;;;;;;;5.88;3.33;;;22.30;35.30;;;;;;6159764;28;80626;-74
2022/01/06 10:35:07;;;;;;;6.57;3.70;;;22.20;34.60;;;;;;6159449;28;80622;-74
2022/01/06 10:38:08;;;;;;;5.85;3.33;;;22.20;34.80;;;;;;6159564;28;80209;-74
2022/01/06 10:41:09;;;;;;;5.72;3.38;;;22.20;34.50;;;;;;6160241;28;80894;-73
2022/01/06 10:44:10;;;;;;;5.63;3.45;;;22.20;34.60;;;;;;6157766;28;81903;-70
2022/01/06 10:47:11;;;;;;;5.60;3.00;;;22.20;34.40;;;;;;6143622;28;80579;-67
2022/01/06 10:50:11;;;;;;;7.68;3.50;;;22.20;34.50;;;;;;6159309;28;80348;-66
2022/01/06 10:53:12;;;;;;;7.30;3.58;;;22.10;34.40;;;;;;6158022;28;81786;-68
2022/01/06 10:56:12;;;;;;;10.52;3.58;;;22.10;35.10;;;;;;6157824;28;79956;-68
2022/01/06 10:59:13;;;;;;;8.02;3.47;;;22.10;35.50;;;;;;6158413;28;80882;-68
2022/01/06 11:02:13;;;;;;;5.40;3.05;;;22.20;36.00;;;;;;6158460;28;80807;-69
2022/01/06 11:05:14;;;;;;;5.95;3.38;;;22.20;36.10;;;;;;6157899;28;80468;-67
2022/01/06 11:08:17;;;;;;;5.82;3.08;;;22.30;36.40;;;;;;6157589;28;81632;-69
2022/01/06 11:14:30;;;;;;;5.80;3.08;;;22.40;37.40;;;;;;6158817;28;81577;-69
2022/01/06 11:17:31;;;;;;;5.07;3.10;;;22.50;37.00;;;;;;6157955;28;80938;-69
2022/01/06 11:20:31;;;;;;;7.15;3.08;;;22.60;36.90;;;;;;6158200;28;80300;-70
2022/01/06 11:23:34;;;;;;;8.63;3.35;;;22.60;37.10;;;;;;6158653;28;80800;-70
2022/01/06 11:26:35;;;;;;;5.63;3.25;;;22.70;37.30;;;;;;6157719;28;80996;-70
2022/01/06 11:29:36;;;;;;;5.75;3.30;;;22.70;37.30;;;;;;6162822;28;80896;-69
2022/01/06 11:32:36;;;;;;;6.90;3.47;;;22.70;37.60;;;;;;6162691;28;80489;-68
2022/01/06 11:35:37;;;;;;;6.57;3.05;;;22.80;37.50;;;;;;6161977;28;80590;-69
2022/01/06 11:38:37;;;;;;;7.80;3.67;;;22.80;37.70;;;;;;6194527;28;82630;-69
2022/01/06 11:41:38;;;;;;;6.13;3.10;;;22.80;37.60;;;;;;6161867;28;82357;-68
2022/01/06 11:44:38;;;;;;;6.93;3.35;;;22.90;37.70;;;;;;6162890;28;80483;-68
2022/01/06 11:47:39;;;;;;;6.60;3.72;;;22.90;39.70;;;;;;6163566;28;81476;-67
2022/01/06 11:50:39;;;;;;;9.18;3.67;;;23.00;40.50;;;;;;6162824;28;80233;-68
2022/01/06 11:53:40;;;;;;;6.93;4.05;;;23.10;39.90;;;;;;6163475;28;80289;-67
2022/01/06 11:56:40;;;;;;;9.15;3.97;;;23.20;39.70;;;;;;6160104;28;80471;-69
2022/01/06 11:59:41;;;;;;;11.55;4.55;;;23.30;39.60;;;;;;6161292;28;80813;-68
2022/01/06 12:02:42;;;;;;;8.50;4.43;;;23.30;39.80;;;;;;6162233;28;80633;-69
2022/01/06 12:05:43;;;;;;;12.25;4.38;;;23.30;39.50;;;;;;6161652;28;80433;-68
2022/01/06 12:08:44;;;;;;;10.10;5.00;;;23.40;39.60;;;;;;6162451;28;80091;-68
2022/01/06 12:11:44;;;;;;;11.18;4.43;;;23.40;39.70;;;;;;6161227;28;80805;-68
2022/01/06 12:14:48;;;;;;;8.75;4.47;;;23.40;39.40;;;;;;6162200;28;80879;-69
2022/01/06 12:17:56;;;;;;;9.05;4.55;;;23.40;39.40;;;;;;6161481;28;81696;-69
2022/01/06 12:20:56;;;;;;;8.73;3.88;;;23.40;39.50;;;;;;6162920;28;80417;-73
2022/01/06 12:23:57;;;;;;;7.47;3.47;;;23.40;39.40;;;;;;6162495;28;80332;-75
2022/01/06 12:26:57;;;;;;;5.85;3.40;;;23.40;39.00;;;;;;6163721;28;80416;-72
2022/01/06 12:29:58;;;;;;;6.00;2.83;;;23.40;39.10;;;;;;6170213;28;81875;-69
2022/01/06 12:32:58;;;;;;;7.72;3.25;;;23.40;38.30;;;;;;6161306;28;81389;-70
2022/01/06 12:36:01;;;;;;;4.88;3.25;;;23.40;38.10;;;;;;6160863;28;80539;-71
2022/01/06 12:39:01;;;;;;;6.82;3.55;;;23.40;38.10;;;;;;6161782;28;80885;-71
2022/01/06 12:42:02;;;;;;;5.47;2.60;;;23.40;38.00;;;;;;6161632;28;80321;-70
2022/01/06 12:45:02;;;;;;;5.82;3.10;;;23.40;37.70;;;;;;6161728;28;80640;-70
2022/01/06 12:48:03;;;;;;;6.20;2.63;;;23.40;37.50;;;;;;6160901;28;81400;-72
2022/01/06 12:51:03;;;;;;;8.13;3.42;;;23.40;37.30;;;;;;6162200;28;80458;-73
2022/01/06 12:54:04;;;;;;;5.63;3.20;;;23.30;37.40;;;;;;6159501;28;82604;-72
2022/01/06 12:57:06;;;;;;;5.93;3.72;;;23.30;37.40;;;;;;6156126;28;80253;-66
2022/01/06 13:00:07;;;;;;;5.93;3.00;;;23.30;37.30;;;;;;6161795;28;81445;-70
2022/01/06 13:03:07;;;;;;;10.30;2.92;;;23.30;37.60;;;;;;6159830;28;81825;-68
2022/01/06 13:06:08;;;;;;;6.75;3.05;;;23.30;38.20;;;;;;6160782;28;83177;-70
2022/01/06 13:09:08;;;;;;;8.70;3.42;;;23.30;38.90;;;;;;6149671;28;80440;-70
2022/01/06 13:12:09;;;;;;;5.63;3.10;;;23.30;39.40;;;;;;6157779;28;81270;-69
2022/01/06 13:15:09;;;;;;;5.47;3.60;;;23.30;39.50;;;;;;6159853;28;81644;-69
2022/01/06 13:18:10;;;;;;;10.82;3.40;;;23.30;39.10;;;;;;6161284;28;81277;-70
2022/01/06 13:21:10;;;;;;;3.95;2.67;;;23.20;38.80;;;;;;6161550;28;80686;-69
2022/01/06 13:24:11;;;;;;;9.05;3.17;;;23.20;38.90;;;;;;6160075;28;80777;-72
2022/01/06 13:39:11;;;;;;;8.20;3.63;;;23.20;39.30;;;;;;6264991;27;76381;-64
2022/01/06 13:42:12;;;;;;;8.30;3.25;;;23.00;40.60;;;;;;6219117;28;80291;-67
2022/01/06 13:45:21;;;;;;;7.18;3.13;;;23.00;40.70;;;;;;6220555;28;80848;-67
2022/01/06 13:51:22;;;;;;;17.77;3.47;;;23.10;40.80;;;;;;6219062;28;80467;-69
2022/01/06 13:54:22;;;;;;;5.10;2.97;;;23.10;40.40;;;;;;6219496;28;81832;-69
2022/01/06 13:57:23;;;;;;;7.70;3.65;;;23.10;40.30;;;;;;6222042;28;80996;-69
2022/01/06 14:00:24;;;;;;;7.90;3.20;;;23.10;40.50;;;;;;6220707;28;80699;-69
2022/01/06 14:03:29;;;;;;;7.15;2.72;;;23.10;40.70;;;;;;6224009;28;80663;-68
2022/01/06 14:06:30;;;;;;;8.02;2.90;;;23.10;40.60;;;;;;6223057;28;80100;-69
2022/01/06 14:09:30;;;;;;;8.95;3.45;;;23.10;40.10;;;;;;6224192;28;80252;-69
2022/01/06 14:12:31;;;;;;;5.55;3.35;;;23.10;40.50;;;;;;6224912;27;81271;-69
2022/01/06 14:15:31;;;;;;;7.55;2.95;;;23.10;39.90;;;;;;6224134;28;81196;-69
2022/01/06 14:18:32;;;;;;;8.68;3.25;;;23.10;40.20;;;;;;6222844;27;80474;-70
2022/01/06 14:21:32;;;;;;;4.65;2.80;;;23.10;40.30;;;;;;6226254;28;80555;-70
2022/01/06 14:24:35;;;;;;;6.50;3.10;;;23.10;39.90;;;;;;6234436;28;82068;-69
2022/01/06 14:27:35;;;;;;;23.83;9.38;;;23.10;39.90;;;;;;6212846;28;80934;-71
2022/01/06 14:30:36;;;;;;;17.90;6.68;;;23.00;39.00;;;;;;6225141;28;81036;-68
2022/01/06 14:33:36;;;;;;;14.07;6.60;;;23.00;39.30;;;;;;6223891;28;80320;-68
2022/01/06 14:36:37;;;;;;;12.25;5.57;;;22.90;39.70;;;;;;6217595;27;80554;-69
2022/01/06 14:39:37;;;;;;;11.57;5.00;;;22.90;40.40;;;;;;6205788;28;80392;-69
2022/01/06 14:42:38;;;;;;;12.30;5.25;;;22.90;39.90;;;;;;6220644;28;80355;-69
2022/01/06 14:45:38;;;;;;;12.05;5.03;;;22.90;39.80;;;;;;6223458;28;80863;-70
2022/01/06 14:48:39;;;;;;;9.43;3.83;;;22.80;39.70;;;;;;6231406;27;81045;-70
2022/01/06 14:51:40;;;;;;;9.38;4.05;;;22.80;39.70;;;;;;6226163;28;81894;-68
2022/01/06 14:54:40;;;;;;;8.85;4.40;;;22.80;39.60;;;;;;6223147;27;80183;-69
2022/01/06 14:57:41;;;;;;;8.52;4.25;;;22.80;39.50;;;;;;6214340;27;80714;-69
2022/01/06 15:00:41;;;;;;;8.13;3.28;;;22.80;39.50;;;;;;6204263;28;80423;-70
2022/01/06 15:03:42;;;;;;;6.45;3.00;;;22.80;38.80;;;;;;6202801;28;80487;-71
2022/01/06 15:06:42;;;;;;;7.97;3.53;;;22.80;39.00;;;;;;6208766;28;80571;-69
2022/01/06 15:09:43;;;;;;;16.77;3.95;;;22.70;39.20;;;;;;6206886;28;80933;-70
2022/01/06 15:12:43;;;;;;;6.45;2.70;;;22.80;39.10;;;;;;6206062;28;80481;-69
2022/01/06 15:15:44;;;;;;;8.55;2.92;;;22.70;37.90;;;;;;6200074;28;81272;-71
2022/01/06 15:18:44;;;;;;;5.10;2.85;;;22.70;37.90;;;;;;6202361;28;81606;-70
2022/01/06 15:21:45;;;;;;;7.28;2.42;;;22.70;37.00;;;;;;6205614;28;80704;-70
2022/01/06 15:24:45;;;;;;;5.38;2.50;;;22.70;36.20;;;;;;6201674;28;81659;-71
2022/01/06 15:27:46;;;;;;;8.35;2.90;;;22.70;36.10;;;;;;6204852;28;80574;-72
2022/01/06 15:30:47;;;;;;;3.30;2.22;;;22.80;36.10;;;;;;6205935;28;81535;-71
2022/01/06 15:33:47;;;;;;;4.50;2.88;;;22.80;36.30;;;;;;6203929;28;82429;-70
2022/01/06 15:36:48;;;;;;;4.05;2.78;;;22.80;35.70;;;;;;6199072;28;80493;-71
2022/01/06 15:39:48;;;;;;;5.40;3.15;;;22.80;35.40;;;;;;6201689;28;81453;-70
2022/01/06 15:42:49;;;;;;;3.33;2.30;;;22.80;35.40;;;;;;6200765;28;80930;-72
2022/01/06 15:45:50;;;;;;;7.07;2.92;;;22.90;35.20;;;;;;6201984;28;80891;-70
2022/01/06 15:48:51;;;;;;;4.03;2.63;;;22.90;35.10;;;;;;6207392;28;80952;-70
2022/01/06 15:51:51;;;;;;;3.60;2.60;;;22.90;34.90;;;;;;6205993;28;81058;-70
2022/01/06 15:54:52;;;;;;;3.95;2.30;;;22.90;34.80;;;;;;6197687;28;80453;-73
2022/01/06 15:57:52;;;;;;;28.17;12.50;;;23.00;35.30;;;;;;6205812;28;80404;-71
2022/01/06 16:07:16;;;;;;;174.35;77.90;;;23.10;35.40;;;;;;6196532;28;84399;-71
2022/01/06 16:10:16;;;;;;;215.05;101.60;;;23.10;35.10;;;;;;6197245;28;83289;-71